Anderson, California
Current Conditions -  °F | °C
As of 5:41 PM on Saturday 25 Oct 2014 (Local Time) from KRDD Reporting Station
Thunderstorm Thunderstorm  
Wind Chill: 60°   Ceiling: 8000
Heat Index: 60°   Visibility: 6mi
Dew Point: 58°   Wind: 8mph
Humidity: 93%   Direction: 200°SSW
Pressure: 29.92"   Gusts: NA
Location:  40.45°N, 122.3°W
Report Text: KRDD 260041Z 20007KT 6SM VCTS BR BKN080 OVC100 16/14 A2992 RMK AO2 PK WND 23052/0005 LTG DSNT NE AND E RAE17 TSE35 P0084 T01560144
Loading
Personal Weather Stations






























Interactive Weather Map
Tropical Storm Tracking
New forecast layout! Learn more

10-Day Weather Forecast

Advertisements
Track Severe Weather on mobile